createdAt,value
2019-03-25T00:00:35.123Z,6.31
2019-03-25T00:01:35.106Z,6.30
2019-03-25T00:02:35.115Z,6.35
2019-03-25T00:03:35.072Z,6.36
2019-03-25T00:04:35.069Z,6.41
2019-03-25T00:05:35.080Z,6.33
2019-03-25T00:06:35.903Z,6.39
2019-03-25T00:07:35.262Z,6.41
2019-03-25T00:08:35.018Z,6.42
2019-03-25T00:09:35.013Z,6.42
2019-03-25T00:10:35.098Z,6.36
2019-03-25T00:11:35.010Z,6.38
2019-03-25T00:12:35.103Z,6.35
2019-03-25T00:13:35.130Z,6.31
2019-03-25T00:14:34.977Z,6.27
2019-03-25T00:15:34.946Z,6.27
2019-03-25T00:16:34.935Z,6.33
2019-03-25T00:17:35.181Z,6.31
2019-03-25T00:18:41.527Z,6.38
2019-03-25T00:19:34.912Z,6.42
2019-03-25T00:20:34.882Z,6.45
2019-03-25T00:21:36.230Z,6.42
2019-03-25T00:22:34.871Z,6.45
2019-03-25T00:23:35.043Z,6.39
2019-03-25T00:24:39.055Z,6.39
2019-03-25T00:25:34.896Z,6.33
2019-03-25T00:26:34.820Z,6.27
2019-03-25T00:27:34.829Z,6.27
2019-03-25T00:28:34.838Z,6.35
2019-03-25T00:29:34.889Z,6.30
2019-03-25T00:30:34.829Z,6.22
2019-03-25T00:31:34.778Z,6.20
2019-03-25T00:32:34.777Z,6.19
2019-03-25T00:33:34.746Z,6.24
2019-03-25T00:34:34.860Z,6.17
2019-03-25T00:35:34.876Z,6.17
2019-03-25T00:36:35.479Z,6.26
2019-03-25T00:37:34.705Z,6.17
2019-03-25T00:38:34.684Z,6.19
2019-03-25T00:39:34.685Z,6.12
2019-03-25T00:40:34.682Z,6.19
2019-03-25T00:41:34.797Z,6.19
2019-03-25T00:42:34.663Z,6.19
2019-03-25T00:43:34.664Z,6.17
2019-03-25T00:44:34.640Z,6.20
2019-03-25T00:45:34.804Z,6.05
2019-03-25T00:46:34.630Z,6.08
2019-03-25T00:47:34.657Z,6.04
2019-03-25T00:48:34.585Z,6.01
2019-03-25T00:49:34.595Z,6.09
2019-03-25T00:50:34.571Z,6.11
2019-03-25T00:51:34.716Z,6.14
2019-03-25T00:52:34.556Z,6.07
2019-03-25T00:53:34.526Z,6.09
2019-03-25T00:54:34.547Z,6.08
2019-03-25T00:55:34.502Z,6.11
2019-03-25T00:56:34.499Z,6.17
2019-03-25T00:57:34.635Z,6.07
2019-03-25T00:58:34.494Z,6.17
2019-03-25T00:59:34.665Z,6.14
2019-03-25T01:00:34.459Z,6.09
2019-03-25T01:01:34.491Z,6.05
2019-03-25T01:02:34.439Z,6.11
2019-03-25T01:03:35.914Z,6.16
2019-03-25T01:04:34.714Z,6.26
2019-03-25T01:05:34.393Z,6.16
2019-03-25T01:06:34.391Z,6.20
2019-03-25T01:07:34.372Z,6.27
2019-03-25T01:08:34.362Z,6.26
2019-03-25T01:09:34.363Z,6.27
2019-03-25T01:10:34.601Z,6.33
2019-03-25T01:11:34.437Z,6.36
2019-03-25T01:12:34.318Z,6.28
2019-03-25T01:13:34.307Z,6.33
2019-03-25T01:14:34.300Z,6.30
2019-03-25T01:15:34.445Z,6.38
2019-03-25T01:16:34.279Z,6.38
2019-03-25T01:17:34.273Z,6.33
2019-03-25T01:18:34.255Z,6.28
2019-03-25T01:19:34.257Z,6.20
2019-03-25T01:20:34.239Z,6.16
2019-03-25T01:21:34.407Z,6.14
2019-03-25T01:22:34.209Z,6.11
2019-03-25T01:23:34.209Z,6.08
2019-03-25T01:24:34.715Z,6.07
2019-03-25T01:25:34.179Z,6.17
2019-03-25T01:26:34.163Z,6.17
2019-03-25T01:27:34.254Z,6.07
2019-03-25T01:28:34.304Z,6.08
2019-03-25T01:29:34.137Z,6.08
2019-03-25T01:30:34.117Z,6.12
2019-03-25T01:31:34.128Z,6.09
2019-03-25T01:32:34.107Z,6.19
2019-03-25T01:33:34.225Z,6.08
2019-03-25T01:34:34.106Z,6.04
2019-03-25T01:35:34.059Z,6.04
2019-03-25T01:36:34.140Z,6.08
2019-03-25T01:37:34.085Z,6.07
2019-03-25T01:38:34.029Z,6.05
2019-03-25T01:39:34.379Z,6.09
2019-03-25T01:40:34.029Z,6.05
2019-03-25T01:41:33.999Z,6.04
2019-03-25T01:42:33.988Z,6.11
2019-03-25T01:43:34.120Z,6.09
2019-03-25T01:44:33.967Z,6.07
2019-03-25T01:45:33.957Z,5.91
2019-03-25T01:46:33.955Z,6.07
2019-03-25T01:47:33.954Z,6.04
2019-03-25T01:48:33.925Z,6.02
2019-03-25T01:49:34.064Z,6.01
2019-03-25T01:50:33.935Z,5.94
2019-03-25T01:51:33.916Z,5.91
2019-03-25T01:52:33.882Z,5.90
2019-03-25T01:53:33.978Z,5.99
2019-03-25T01:54:33.856Z,5.99
2019-03-25T01:55:34.229Z,5.94
2019-03-25T01:56:33.966Z,5.93
2019-03-25T01:57:33.819Z,5.90
2019-03-25T01:58:33.805Z,5.94
2019-03-25T01:59:33.803Z,5.89
2019-03-25T02:00:33.791Z,5.91
2019-03-25T02:01:33.786Z,5.82
2019-03-25T02:02:33.922Z,5.82
2019-03-25T02:03:33.773Z,5.71
2019-03-25T02:04:33.750Z,5.83
2019-03-25T02:05:33.745Z,5.83
2019-03-25T02:06:33.735Z,5.75
2019-03-25T02:07:33.893Z,5.71
2019-03-25T02:08:33.784Z,5.80
2019-03-25T02:09:33.687Z,5.71
2019-03-25T02:10:33.763Z,5.76
2019-03-25T02:11:33.675Z,5.68
2019-03-25T02:12:33.731Z,5.72
2019-03-25T02:13:33.819Z,5.64
2019-03-25T02:14:33.680Z,5.65
2019-03-25T02:15:33.645Z,5.71
2019-03-25T02:16:35.675Z,5.66
2019-03-25T02:17:33.910Z,5.68
2019-03-25T02:18:33.747Z,5.71
2019-03-25T02:19:33.586Z,5.66
2019-03-25T02:20:33.582Z,5.83
2019-03-25T02:21:33.562Z,5.80
2019-03-25T02:22:33.630Z,5.75
2019-03-25T02:23:33.626Z,5.62
2019-03-25T02:24:33.727Z,5.66
2019-03-25T02:25:33.643Z,5.64
2019-03-25T02:26:33.519Z,5.59
2019-03-25T02:27:33.700Z,5.62
2019-03-25T02:28:33.486Z,5.59
2019-03-25T02:29:33.885Z,5.48
2019-03-25T02:30:33.480Z,5.57
2019-03-25T02:31:33.447Z,5.59
2019-03-25T02:32:33.464Z,5.56
2019-03-25T02:33:33.445Z,5.53
2019-03-25T02:34:33.450Z,5.54
2019-03-25T02:35:35.101Z,5.41
2019-03-25T02:36:33.872Z,5.38
2019-03-25T02:37:33.452Z,5.39
2019-03-25T02:38:33.438Z,5.38
2019-03-25T02:39:33.446Z,5.33
2019-03-25T02:40:33.354Z,5.35
2019-03-25T02:41:33.646Z,5.26
2019-03-25T02:42:33.631Z,5.26
2019-03-25T02:43:33.333Z,5.23
2019-03-25T02:44:33.321Z,5.10
2019-03-25T02:45:33.670Z,5.10
2019-03-25T02:46:33.289Z,5.11
2019-03-25T02:47:33.282Z,5.11
2019-03-25T02:48:33.735Z,5.04
2019-03-25T02:49:39.978Z,5.05
2019-03-25T02:50:33.248Z,5.00
2019-03-25T02:51:33.227Z,4.87
2019-03-25T02:52:33.224Z,4.87
2019-03-25T02:53:33.262Z,4.87
2019-03-25T02:54:33.434Z,4.87
2019-03-25T02:55:41.381Z,4.82
2019-03-25T02:56:34.180Z,4.80
2019-03-25T02:57:33.169Z,4.80
2019-03-25T02:58:33.157Z,4.73
2019-03-25T02:59:33.355Z,4.86
2019-03-25T03:00:33.142Z,4.89
2019-03-25T03:01:33.128Z,4.84
2019-03-25T03:02:33.136Z,4.78
2019-03-25T03:03:33.103Z,4.74
2019-03-25T03:04:33.105Z,4.68
2019-03-25T03:05:33.299Z,4.77
2019-03-25T03:06:33.080Z,4.73
2019-03-25T03:07:33.059Z,4.71
2019-03-25T03:08:33.043Z,4.74
2019-03-25T03:09:33.033Z,4.67
2019-03-25T03:10:33.032Z,4.78
2019-03-25T03:11:33.139Z,4.80
2019-03-25T03:12:33.036Z,4.84
2019-03-25T03:13:32.999Z,4.87
2019-03-25T03:14:33.038Z,4.84
2019-03-25T03:15:32.976Z,4.89
2019-03-25T03:16:33.306Z,4.78
2019-03-25T03:17:33.198Z,4.84
2019-03-25T03:18:32.981Z,4.84
2019-03-25T03:19:32.929Z,4.90
2019-03-25T03:20:32.921Z,4.90
2019-03-25T03:21:32.951Z,5.04
2019-03-25T03:22:33.163Z,5.00
2019-03-25T03:23:32.889Z,5.00
2019-03-25T03:24:32.876Z,5.00
2019-03-25T03:25:32.882Z,5.05
2019-03-25T03:26:32.851Z,5.08
2019-03-25T03:27:32.986Z,5.17
2019-03-25T03:28:32.988Z,5.18
2019-03-25T03:29:32.823Z,5.26
2019-03-25T03:30:32.930Z,5.18
2019-03-25T03:31:33.072Z,5.29
2019-03-25T03:32:33.039Z,5.14
2019-03-25T03:33:32.776Z,5.14
2019-03-25T03:34:32.901Z,5.07
2019-03-25T03:35:32.778Z,4.99
2019-03-25T03:36:32.761Z,4.96
2019-03-25T03:37:32.742Z,4.82
2019-03-25T03:38:32.725Z,4.94
2019-03-25T03:39:32.817Z,4.84
2019-03-25T03:40:32.715Z,4.90
2019-03-25T03:41:32.685Z,4.78
2019-03-25T03:42:32.678Z,4.86
2019-03-25T03:43:32.834Z,4.86
2019-03-25T03:44:32.663Z,4.82
2019-03-25T03:45:32.788Z,4.80
2019-03-25T03:46:32.646Z,4.86
2019-03-25T03:47:32.619Z,4.82
2019-03-25T03:48:32.702Z,4.84
2019-03-25T03:49:32.605Z,4.89
2019-03-25T03:50:32.795Z,4.93
2019-03-25T03:51:32.727Z,4.93
2019-03-25T03:52:32.566Z,4.90
2019-03-25T03:53:32.563Z,4.90
2019-03-25T03:54:32.552Z,5.00
2019-03-25T03:55:32.552Z,5.02
2019-03-25T03:56:32.524Z,5.00
2019-03-25T03:57:32.642Z,5.04
2019-03-25T03:58:32.521Z,4.96
2019-03-25T03:59:32.504Z,5.12
2019-03-25T04:00:33.844Z,5.04
2019-03-25T04:01:32.862Z,4.99
2019-03-25T04:02:32.464Z,5.07
2019-03-25T04:03:32.462Z,5.11
2019-03-25T04:04:32.434Z,5.02
2019-03-25T04:05:32.593Z,5.05
2019-03-25T04:06:33.177Z,5.05
2019-03-25T04:07:35.397Z,5.02
2019-03-25T04:08:32.399Z,4.99
2019-03-25T04:09:32.388Z,4.99
2019-03-25T04:10:32.382Z,4.99
2019-03-25T04:11:32.383Z,4.99
2019-03-25T04:12:32.488Z,5.02
2019-03-25T04:13:32.351Z,5.07
2019-03-25T04:14:32.349Z,5.04
2019-03-25T04:15:32.321Z,5.00
2019-03-25T04:16:32.319Z,4.97
2019-03-25T04:17:32.294Z,4.87
2019-03-25T04:18:32.395Z,4.87
2019-03-25T04:19:32.285Z,4.84
2019-03-25T04:20:32.272Z,4.86
2019-03-25T04:21:32.254Z,4.77
2019-03-25T04:22:32.558Z,4.80
2019-03-25T04:23:32.575Z,4.73
2019-03-25T04:24:32.255Z,4.70
2019-03-25T04:25:32.217Z,4.78
2019-03-25T04:26:32.267Z,4.75
2019-03-25T04:27:32.197Z,4.70
2019-03-25T04:28:33.676Z,4.67
2019-03-25T04:29:32.175Z,4.68
2019-03-25T04:30:32.157Z,4.77
2019-03-25T04:31:32.240Z,4.71
2019-03-25T04:32:32.147Z,4.77
2019-03-25T04:33:32.145Z,4.92
2019-03-25T04:34:32.240Z,4.87
2019-03-25T04:35:32.112Z,4.90
2019-03-25T04:36:32.093Z,4.89
2019-03-25T04:37:32.101Z,4.93
2019-03-25T04:38:32.628Z,5.02
2019-03-25T04:39:32.120Z,4.99
2019-03-25T04:40:32.208Z,5.02
2019-03-25T04:41:32.052Z,5.02
2019-03-25T04:42:32.041Z,5.08
2019-03-25T04:43:32.024Z,5.04
2019-03-25T04:44:32.042Z,4.99
2019-03-25T04:45:32.428Z,5.05
2019-03-25T04:46:31.979Z,5.11
2019-03-25T04:47:31.976Z,5.08
2019-03-25T04:48:31.971Z,5.11
2019-03-25T04:49:31.965Z,5.08
2019-03-25T04:50:32.112Z,5.10
2019-03-25T04:51:31.937Z,5.05
2019-03-25T04:52:31.914Z,5.11
2019-03-25T04:53:31.915Z,5.17
2019-03-25T04:54:32.272Z,5.26
2019-03-25T04:55:31.908Z,5.23
2019-03-25T04:56:39.546Z,5.17
2019-03-25T04:57:34.237Z,5.20
2019-03-25T04:58:31.853Z,5.12
2019-03-25T04:59:31.844Z,5.11
2019-03-25T05:00:31.954Z,5.18
2019-03-25T05:01:31.829Z,5.20
2019-03-25T05:02:31.896Z,5.15
2019-03-25T05:03:31.792Z,5.30
2019-03-25T05:04:31.871Z,5.23
2019-03-25T05:05:31.781Z,5.32
2019-03-25T05:06:31.869Z,5.28
2019-03-25T05:07:31.775Z,5.38
2019-03-25T05:08:31.787Z,5.43
2019-03-25T05:09:31.958Z,5.41
2019-03-25T05:10:31.755Z,5.38
2019-03-25T05:11:31.806Z,5.43
2019-03-25T05:12:31.748Z,5.39
2019-03-25T05:13:31.797Z,5.38
2019-03-25T05:14:32.437Z,5.36
2019-03-25T05:15:32.135Z,5.39
2019-03-25T05:16:31.878Z,5.48
2019-03-25T05:17:32.015Z,5.39
2019-03-25T05:18:33.143Z,5.53
2019-03-25T05:19:31.619Z,5.43
2019-03-25T05:20:31.645Z,5.39
2019-03-25T05:21:31.602Z,5.33
2019-03-25T05:22:31.763Z,5.39
2019-03-25T05:23:31.928Z,5.44
2019-03-25T05:24:31.579Z,5.38
2019-03-25T05:25:31.590Z,5.41
2019-03-25T05:26:31.771Z,5.39
2019-03-25T05:27:31.541Z,5.28
2019-03-25T05:28:31.580Z,5.28
2019-03-25T05:29:31.526Z,5.33
2019-03-25T05:30:31.525Z,5.32
2019-03-25T05:31:31.780Z,5.30
2019-03-25T05:32:31.484Z,5.33
2019-03-25T05:33:31.486Z,5.35
2019-03-25T05:34:31.463Z,5.35
2019-03-25T05:35:31.462Z,5.47
2019-03-25T05:36:31.467Z,5.46
2019-03-25T05:37:31.784Z,5.48
2019-03-25T05:38:31.458Z,5.41
2019-03-25T05:39:32.263Z,5.46
2019-03-25T05:40:31.647Z,5.64
2019-03-25T05:41:31.450Z,5.62
2019-03-25T05:42:31.440Z,5.54
2019-03-25T05:43:31.463Z,5.57
2019-03-25T05:44:31.493Z,5.62
2019-03-25T05:45:31.413Z,5.65
2019-03-25T05:46:31.335Z,5.68
2019-03-25T05:47:31.342Z,5.69
2019-03-25T05:48:31.323Z,5.66
2019-03-25T05:49:31.300Z,5.76
2019-03-25T05:50:31.522Z,5.69
2019-03-25T05:51:31.292Z,5.68
2019-03-25T05:52:31.288Z,5.73
2019-03-25T05:53:31.256Z,5.69
2019-03-25T05:54:31.246Z,5.65
2019-03-25T05:55:31.447Z,5.62
2019-03-25T05:56:31.233Z,5.61
2019-03-25T05:57:31.213Z,5.56
2019-03-25T05:58:31.201Z,5.59
2019-03-25T05:59:31.193Z,5.56
2019-03-25T06:00:31.615Z,5.57
2019-03-25T06:01:31.295Z,5.39
2019-03-25T06:02:31.156Z,5.28
2019-03-25T06:03:31.135Z,5.17
2019-03-25T06:04:31.165Z,5.12
2019-03-25T06:05:31.115Z,5.04
2019-03-25T06:06:31.728Z,4.92
2019-03-25T06:07:31.110Z,4.93
2019-03-25T06:08:31.089Z,4.87
2019-03-25T06:09:31.090Z,4.89
2019-03-25T06:10:31.173Z,4.78
2019-03-25T06:11:31.053Z,4.84
2019-03-25T06:12:31.136Z,4.87
2019-03-25T06:13:31.038Z,4.89
2019-03-25T06:14:31.028Z,4.86
2019-03-25T06:15:31.032Z,4.82
2019-03-25T06:16:31.634Z,4.89
2019-03-25T06:17:33.910Z,5.00
2019-03-25T06:18:31.032Z,4.94
2019-03-25T06:19:31.352Z,5.04
2019-03-25T06:20:30.974Z,5.04
2019-03-25T06:21:31.400Z,5.07
2019-03-25T06:22:30.947Z,5.04
2019-03-25T06:23:31.277Z,5.00
2019-03-25T06:24:30.915Z,4.90
2019-03-25T06:25:31.088Z,4.84
2019-03-25T06:26:30.893Z,4.89
2019-03-25T06:27:30.881Z,4.87
2019-03-25T06:28:30.995Z,4.89
2019-03-25T06:29:33.468Z,4.89
2019-03-25T06:30:30.855Z,4.80
2019-03-25T06:31:30.872Z,4.75
2019-03-25T06:32:31.814Z,4.80
2019-03-25T06:33:31.415Z,4.78
2019-03-25T06:34:31.137Z,4.80
2019-03-25T06:35:30.796Z,4.86
2019-03-25T06:36:30.793Z,4.73
2019-03-25T06:37:30.807Z,4.80
2019-03-25T06:38:30.761Z,4.71
2019-03-25T06:39:31.290Z,4.73
2019-03-25T06:40:31.049Z,4.71
2019-03-25T06:41:30.793Z,4.71
2019-03-25T06:42:31.298Z,4.58
2019-03-25T06:43:30.926Z,4.73
2019-03-25T06:44:30.924Z,4.70
2019-03-25T06:45:30.767Z,4.58
2019-03-25T06:46:30.675Z,4.62
2019-03-25T06:47:30.813Z,4.45
2019-03-25T06:48:30.658Z,4.44
2019-03-25T06:49:30.637Z,4.34
2019-03-25T06:50:32.890Z,4.32
2019-03-25T06:51:30.727Z,4.26
2019-03-25T06:52:30.755Z,4.20
2019-03-25T06:53:30.619Z,4.14
2019-03-25T06:54:30.587Z,4.17
2019-03-25T06:55:30.613Z,4.22
2019-03-25T06:56:30.576Z,4.26
2019-03-25T06:57:30.694Z,4.26
2019-03-25T06:58:30.561Z,4.24
2019-03-25T06:59:30.543Z,4.24
2019-03-25T07:00:30.641Z,4.22
2019-03-25T07:01:30.953Z,4.32
2019-03-25T07:02:30.501Z,4.31
2019-03-25T07:03:30.625Z,4.31
2019-03-25T07:04:30.486Z,4.22
2019-03-25T07:05:30.831Z,4.28
2019-03-25T07:06:30.513Z,4.30
2019-03-25T07:07:30.452Z,4.19
2019-03-25T07:08:30.454Z,4.26
2019-03-25T07:09:30.437Z,4.23
2019-03-25T07:10:31.123Z,4.16
2019-03-25T07:11:32.421Z,4.16
2019-03-25T07:12:30.478Z,4.08
2019-03-25T07:13:30.743Z,4.14
2019-03-25T07:14:31.428Z,4.10
2019-03-25T07:15:31.308Z,4.12
2019-03-25T07:16:31.343Z,4.14
2019-03-25T07:17:30.916Z,4.14
2019-03-25T07:18:30.458Z,4.02
2019-03-25T07:19:30.432Z,4.04
2019-03-25T07:20:30.474Z,4.04
2019-03-25T07:21:30.955Z,3.96
2019-03-25T07:22:30.453Z,4.02
2019-03-25T07:23:32.468Z,4.14
2019-03-25T07:24:30.264Z,4.08
2019-03-25T07:25:30.245Z,4.17
2019-03-25T07:26:31.398Z,4.19
2019-03-25T07:27:36.663Z,4.13
2019-03-25T07:28:31.446Z,4.26
2019-03-25T07:29:30.207Z,4.26
2019-03-25T07:30:30.197Z,4.31
2019-03-25T07:31:30.208Z,4.22
2019-03-25T07:32:30.174Z,4.26
2019-03-25T07:33:30.184Z,4.26
2019-03-25T07:34:30.379Z,4.42
2019-03-25T07:35:30.179Z,4.34
2019-03-25T07:36:30.151Z,4.35
2019-03-25T07:37:30.130Z,4.32
2019-03-25T07:38:30.123Z,4.40
2019-03-25T07:39:30.098Z,4.35
2019-03-25T07:40:30.345Z,4.38
2019-03-25T07:41:30.070Z,4.49
2019-03-25T07:42:30.074Z,4.42
2019-03-25T07:43:30.056Z,4.49
2019-03-25T07:44:30.064Z,4.50
2019-03-25T07:45:30.136Z,4.59
2019-03-25T07:46:30.011Z,4.48
2019-03-25T07:47:30.018Z,4.59
2019-03-25T07:48:30.183Z,4.59
2019-03-25T07:49:29.986Z,4.60
2019-03-25T07:50:30.020Z,4.53
2019-03-25T07:51:29.954Z,4.67
2019-03-25T07:52:29.946Z,4.75
2019-03-25T07:53:30.111Z,4.75
2019-03-25T07:54:29.975Z,4.67
2019-03-25T07:55:32.340Z,4.71
2019-03-25T07:56:30.164Z,4.78
2019-03-25T07:57:29.960Z,4.86
2019-03-25T07:58:30.067Z,4.86
2019-03-25T07:59:30.318Z,4.89
2019-03-25T08:00:29.875Z,5.10
2019-03-25T08:01:29.888Z,5.04
2019-03-25T08:02:29.849Z,5.21
2019-03-25T08:03:29.980Z,5.18
2019-03-25T08:04:29.827Z,5.15
2019-03-25T08:05:29.935Z,5.14
2019-03-25T08:06:29.795Z,5.23
2019-03-25T08:07:29.797Z,5.36
2019-03-25T08:08:29.769Z,5.47
2019-03-25T08:09:29.774Z,5.66
2019-03-25T08:10:29.766Z,5.71
2019-03-25T08:11:29.907Z,5.73
2019-03-25T08:12:29.832Z,5.80
2019-03-25T08:13:29.713Z,5.69
2019-03-25T08:14:29.874Z,5.62
2019-03-25T08:15:29.700Z,5.61
2019-03-25T08:16:29.747Z,5.64
2019-03-25T08:17:29.899Z,5.53
2019-03-25T08:18:29.689Z,5.61
2019-03-25T08:19:29.665Z,5.61
2019-03-25T08:20:29.651Z,5.57
2019-03-25T08:21:29.632Z,5.54
2019-03-25T08:22:31.188Z,5.57
2019-03-25T08:23:29.857Z,5.57
2019-03-25T08:24:29.608Z,5.44
2019-03-25T08:25:29.593Z,5.57
2019-03-25T08:26:29.582Z,5.61
2019-03-25T08:27:29.652Z,5.61
2019-03-25T08:28:29.555Z,5.56
2019-03-25T08:29:30.451Z,5.57
2019-03-25T08:30:29.547Z,5.72
2019-03-25T08:31:29.625Z,5.69
2019-03-25T08:32:29.586Z,5.64
2019-03-25T08:33:29.531Z,5.89
2019-03-25T08:34:29.490Z,6.07
2019-03-25T08:35:29.989Z,6.38
2019-03-25T08:36:29.464Z,6.64
2019-03-25T08:37:29.460Z,6.75
2019-03-25T08:38:29.449Z,6.77
2019-03-25T08:39:29.445Z,6.85
2019-03-25T08:40:29.464Z,6.85
2019-03-25T08:41:30.049Z,7.02
2019-03-25T08:42:29.465Z,7.10
2019-03-25T08:43:30.121Z,7.17
2019-03-25T08:44:29.435Z,7.06
2019-03-25T08:45:29.378Z,7.02
2019-03-25T08:46:29.893Z,6.82
2019-03-25T08:47:29.349Z,6.70
2019-03-25T08:48:29.457Z,6.51
2019-03-25T08:49:29.330Z,6.51
2019-03-25T08:50:29.316Z,6.44
2019-03-25T08:51:30.371Z,6.42
2019-03-25T08:52:29.290Z,6.44
2019-03-25T08:53:29.306Z,6.42
2019-03-25T08:54:29.273Z,6.41
2019-03-25T08:55:29.269Z,6.41
2019-03-25T08:56:29.259Z,6.44
2019-03-25T08:57:29.497Z,6.51
2019-03-25T08:58:29.237Z,6.70
2019-03-25T08:59:29.695Z,6.96
2019-03-25T09:00:29.204Z,7.13
2019-03-25T09:01:29.198Z,7.29
2019-03-25T09:02:29.183Z,7.72
2019-03-25T09:03:29.720Z,8.18
2019-03-25T09:04:29.357Z,9.08
2019-03-25T09:05:29.173Z,9.61
2019-03-25T09:06:29.143Z,9.89
2019-03-25T09:07:29.127Z,10.16
2019-03-25T09:08:29.352Z,10.22
2019-03-25T09:09:29.232Z,9.69
2019-03-25T09:10:29.098Z,9.22
2019-03-25T09:11:29.091Z,8.76
2019-03-25T09:12:29.068Z,8.34
2019-03-25T09:13:29.062Z,8.19
2019-03-25T09:14:29.226Z,8.10
2019-03-25T09:15:29.623Z,7.91
2019-03-25T09:16:29.061Z,7.87
2019-03-25T09:17:29.017Z,7.88
2019-03-25T09:18:29.017Z,7.90
2019-03-25T09:19:29.195Z,7.69
2019-03-25T09:20:30.404Z,7.50
2019-03-25T09:21:29.200Z,7.38
2019-03-25T09:22:29.000Z,7.35
2019-03-25T09:23:28.959Z,7.36
2019-03-25T09:24:28.930Z,7.39
2019-03-25T09:25:28.936Z,7.48
2019-03-25T09:26:28.933Z,7.53
2019-03-25T09:27:29.018Z,7.61
2019-03-25T09:28:28.891Z,7.54
2019-03-25T09:29:28.911Z,7.50
2019-03-25T09:30:28.877Z,7.51
2019-03-25T09:31:36.726Z,7.67
2019-03-25T09:32:30.151Z,7.93
2019-03-25T09:33:28.864Z,8.13
2019-03-25T09:34:28.823Z,8.13
2019-03-25T09:35:28.881Z,8.00
2019-03-25T09:36:28.808Z,7.97
2019-03-25T09:37:28.991Z,7.77
2019-03-25T09:38:28.797Z,7.75
2019-03-25T09:39:28.800Z,7.76
2019-03-25T09:40:28.776Z,7.87
2019-03-25T09:41:28.744Z,7.98
2019-03-25T09:42:28.886Z,8.01
2019-03-25T09:43:28.823Z,7.98
2019-03-25T09:44:28.726Z,7.83
2019-03-25T09:45:28.709Z,7.80
2019-03-25T09:46:28.693Z,7.73
2019-03-25T09:47:28.726Z,7.63
2019-03-25T09:48:28.916Z,7.70
2019-03-25T09:49:28.766Z,7.73
2019-03-25T09:50:28.649Z,7.94
2019-03-25T09:51:28.660Z,7.95
2019-03-25T09:52:38.150Z,8.33
2019-03-25T09:53:29.791Z,8.64
2019-03-25T09:54:30.013Z,9.13
2019-03-25T09:55:28.721Z,9.51
2019-03-25T09:56:28.587Z,9.68
2019-03-25T09:57:28.579Z,9.64
2019-03-25T09:58:36.136Z,9.54
2019-03-25T09:59:29.963Z,9.50
2019-03-25T10:00:28.546Z,9.40
2019-03-25T10:01:28.539Z,9.23
2019-03-25T10:02:28.524Z,9.18
2019-03-25T10:03:28.514Z,9.22
2019-03-25T10:04:28.505Z,9.13
2019-03-25T10:05:28.686Z,9.04
2019-03-25T10:06:28.497Z,8.81
2019-03-25T10:07:28.626Z,8.67
2019-03-25T10:08:28.670Z,8.69
2019-03-25T10:09:28.529Z,8.66
2019-03-25T10:10:28.442Z,8.45
2019-03-25T10:11:28.440Z,8.44
2019-03-25T10:12:28.427Z,8.44
2019-03-25T10:13:28.397Z,8.56
2019-03-25T10:14:28.540Z,8.44
2019-03-25T10:15:29.062Z,8.51
2019-03-25T10:16:28.370Z,8.58
2019-03-25T10:17:28.364Z,8.48
2019-03-25T10:18:28.350Z,8.46
2019-03-25T10:19:30.164Z,8.42
2019-03-25T10:20:28.314Z,8.33
2019-03-25T10:21:28.307Z,8.38
2019-03-25T10:22:28.459Z,8.79
2019-03-25T10:23:28.287Z,9.13
2019-03-25T10:24:28.438Z,9.47
2019-03-25T10:25:28.274Z,9.61
2019-03-25T10:26:28.327Z,9.74
2019-03-25T10:27:28.385Z,9.77
2019-03-25T10:28:28.253Z,9.89
2019-03-25T10:29:28.232Z,10.02
2019-03-25T10:30:28.207Z,10.23
2019-03-25T10:31:28.199Z,10.22
2019-03-25T10:32:28.182Z,10.23
2019-03-25T10:33:28.328Z,10.15
2019-03-25T10:34:28.172Z,10.07
2019-03-25T10:35:28.159Z,9.91
2019-03-25T10:36:28.146Z,9.80
2019-03-25T10:37:28.293Z,9.76
2019-03-25T10:38:28.288Z,9.76
2019-03-25T10:39:28.110Z,9.48
2019-03-25T10:40:28.102Z,9.23
2019-03-25T10:41:28.097Z,9.08
2019-03-25T10:42:28.070Z,9.22
2019-03-25T10:43:28.079Z,9.61
2019-03-25T10:44:28.211Z,9.91
2019-03-25T10:45:28.051Z,10.41
2019-03-25T10:46:28.046Z,11.73
2019-03-25T10:47:28.033Z,11.90
2019-03-25T10:48:28.011Z,11.84
2019-03-25T10:49:28.000Z,11.75
2019-03-25T10:50:43.054Z,11.60
2019-03-25T10:51:28.038Z,11.63
2019-03-25T10:52:28.086Z,11.50
2019-03-25T10:53:29.008Z,11.35
2019-03-25T10:54:28.056Z,11.18
2019-03-25T10:55:28.241Z,11.40
2019-03-25T10:56:27.934Z,11.69
2019-03-25T10:57:27.912Z,11.88
2019-03-25T10:58:28.253Z,12.22
2019-03-25T10:59:28.043Z,12.50
2019-03-25T11:00:27.883Z,13.54
2019-03-25T11:01:27.870Z,13.52
2019-03-25T11:02:27.878Z,13.75
2019-03-25T11:03:27.858Z,14.37
2019-03-25T11:04:28.017Z,14.03
2019-03-25T11:05:27.819Z,14.26
2019-03-25T11:06:27.822Z,15.18
2019-03-25T11:07:29.467Z,15.68
2019-03-25T11:08:27.803Z,16.21
2019-03-25T11:09:27.780Z,17.85
2019-03-25T11:10:27.895Z,18.99
2019-03-25T11:11:27.830Z,19.07
2019-03-25T11:12:27.757Z,18.03
2019-03-25T11:13:27.792Z,18.38
2019-03-25T11:14:27.903Z,17.83
2019-03-25T11:15:27.859Z,19.18
2019-03-25T11:16:27.912Z,19.58
2019-03-25T11:17:27.902Z,20.52
2019-03-25T11:18:27.688Z,21.37
2019-03-25T11:19:27.673Z,22.62
2019-03-25T11:20:27.668Z,23.56
2019-03-25T11:21:28.019Z,23.99
2019-03-25T11:22:27.649Z,23.18
2019-03-25T11:23:27.878Z,23.80
2019-03-25T11:24:27.619Z,22.54
2019-03-25T11:25:27.697Z,23.17
2019-03-25T11:26:28.888Z,22.62
2019-03-25T11:27:27.859Z,22.10
2019-03-25T11:28:27.567Z,20.00
2019-03-25T11:29:27.559Z,19.59
2019-03-25T11:30:27.583Z,18.56
2019-03-25T11:31:27.538Z,17.97
2019-03-25T11:32:27.671Z,17.26
2019-03-25T11:33:27.855Z,17.02
2019-03-25T11:34:27.532Z,16.91
2019-03-25T11:35:27.506Z,17.90
2019-03-25T11:36:27.498Z,17.14
2019-03-25T11:37:27.509Z,16.28
2019-03-25T11:38:27.532Z,15.52
2019-03-25T11:39:27.455Z,14.79
2019-03-25T11:40:27.455Z,13.99
2019-03-25T11:41:27.437Z,13.25
2019-03-25T11:42:27.424Z,12.58
2019-03-25T11:43:27.428Z,12.02
2019-03-25T11:44:29.096Z,11.62
2019-03-25T11:45:27.441Z,11.19
2019-03-25T11:46:27.793Z,10.97
2019-03-25T11:47:27.629Z,10.69
2019-03-25T11:48:27.356Z,10.38
2019-03-25T11:49:27.470Z,10.26
2019-03-25T11:50:27.706Z,10.16
2019-03-25T11:51:27.364Z,10.17
2019-03-25T11:52:27.306Z,11.66
2019-03-25T11:53:27.297Z,13.78
2019-03-25T11:54:27.290Z,15.73
2019-03-25T11:55:27.467Z,17.48
2019-03-25T11:56:27.465Z,18.78
2019-03-25T11:57:27.248Z,19.77
2019-03-25T11:58:27.246Z,20.74
2019-03-25T11:59:27.399Z,21.30
2019-03-25T12:00:27.395Z,21.80
2019-03-25T12:01:27.206Z,22.30
2019-03-25T12:02:27.206Z,22.83
2019-03-25T12:03:27.213Z,22.91
2019-03-25T12:04:27.198Z,23.39
2019-03-25T12:05:27.169Z,23.43
2019-03-25T12:06:27.482Z,23.99
2019-03-25T12:07:27.139Z,24.01
2019-03-25T12:08:27.152Z,24.20
2019-03-25T12:09:27.138Z,24.54
2019-03-25T12:10:27.111Z,24.99
2019-03-25T12:11:27.356Z,24.88
2019-03-25T12:12:27.261Z,24.78
2019-03-25T12:13:27.097Z,24.14
2019-03-25T12:14:27.077Z,23.28
2019-03-25T12:15:27.062Z,23.87
2019-03-25T12:16:27.313Z,24.21
2019-03-25T12:17:27.062Z,24.69
2019-03-25T12:18:27.038Z,24.88
2019-03-25T12:19:27.830Z,23.50
2019-03-25T12:20:27.024Z,21.50
2019-03-25T12:21:27.032Z,19.71
2019-03-25T12:22:27.284Z,18.35
2019-03-25T12:23:26.965Z,19.49
2019-03-25T12:24:26.988Z,20.62
2019-03-25T12:25:27.365Z,21.43
2019-03-25T12:26:26.970Z,21.57
2019-03-25T12:27:27.026Z,22.08
2019-03-25T12:28:26.934Z,20.70
2019-03-25T12:29:30.387Z,19.49
2019-03-25T12:30:26.886Z,18.37
2019-03-25T12:31:27.063Z,17.42
2019-03-25T12:32:27.075Z,16.87
2019-03-25T12:33:27.724Z,16.33
2019-03-25T12:34:27.172Z,17.27
2019-03-25T12:35:26.853Z,17.67
2019-03-25T12:36:26.872Z,17.64
2019-03-25T12:37:28.374Z,18.18
2019-03-25T12:38:27.041Z,19.12
2019-03-25T12:39:26.804Z,18.35
2019-03-25T12:40:26.820Z,17.79
2019-03-25T12:41:26.780Z,18.49
2019-03-25T12:42:26.762Z,18.13
2019-03-25T12:43:26.763Z,17.01
2019-03-25T12:44:26.931Z,16.20
2019-03-25T12:45:28.428Z,15.52
2019-03-25T12:46:26.713Z,15.03
2019-03-25T12:47:26.705Z,14.41
2019-03-25T12:48:26.871Z,13.86
2019-03-25T12:49:26.702Z,13.42
2019-03-25T12:50:26.673Z,13.01
2019-03-25T12:51:26.660Z,12.93
2019-03-25T12:52:26.655Z,13.15
2019-03-25T12:53:26.763Z,13.75
2019-03-25T12:54:26.636Z,14.15
2019-03-25T12:55:26.705Z,15.80
2019-03-25T12:56:26.610Z,17.46
2019-03-25T12:57:26.644Z,18.90
2019-03-25T12:58:27.954Z,19.85
2019-03-25T12:59:26.862Z,19.52
2019-03-25T13:00:26.588Z,19.27
2019-03-25T13:01:26.558Z,19.86
2019-03-25T13:02:26.561Z,19.79
2019-03-25T13:03:26.524Z,20.24
2019-03-25T13:04:26.751Z,20.24
2019-03-25T13:05:26.521Z,18.71
2019-03-25T13:06:26.547Z,17.57
2019-03-25T13:07:26.508Z,16.47
2019-03-25T13:08:33.003Z,15.80
2019-03-25T13:09:27.879Z,15.06
2019-03-25T13:10:26.498Z,14.62
2019-03-25T13:11:26.442Z,14.15
2019-03-25T13:12:26.478Z,13.60
2019-03-25T13:13:26.443Z,13.15